sensor_id;sensor_type;location;lat;lon;timestamp;P1;durP1;ratioP1;P2;durP2;ratioP2
20179;SDS011;10249;48.900;9.090;2023-06-24T00:01:49;10.20;;;9.90;;
20179;SDS011;10249;48.900;9.090;2023-06-24T00:04:18;10.17;;;9.87;;
20179;SDS011;10249;48.900;9.090;2023-06-24T00:06:45;9.83;;;9.53;;
20179;SDS011;10249;48.900;9.090;2023-06-24T00:09:13;9.70;;;9.40;;
20179;SDS011;10249;48.900;9.090;2023-06-24T00:11:40;9.63;;;9.33;;
20179;SDS011;10249;48.900;9.090;2023-06-24T00:14:07;9.93;;;9.63;;
20179;SDS011;10249;48.900;9.090;2023-06-24T00:16:35;9.90;;;9.60;;
20179;SDS011;10249;48.900;9.090;2023-06-24T00:19:03;9.73;;;9.43;;
20179;SDS011;10249;48.900;9.090;2023-06-24T00:21:31;9.73;;;9.43;;
20179;SDS011;10249;48.900;9.090;2023-06-24T00:23:58;10.30;;;9.90;;
20179;SDS011;10249;48.900;9.090;2023-06-24T00:26:29;10.40;;;10.10;;
20179;SDS011;10249;48.900;9.090;2023-06-24T00:28:56;9.90;;;9.60;;
20179;SDS011;10249;48.900;9.090;2023-06-24T00:31:23;9.40;;;9.10;;
20179;SDS011;10249;48.900;9.090;2023-06-24T00:33:50;9.70;;;9.40;;
20179;SDS011;10249;48.900;9.090;2023-06-24T00:36:18;9.90;;;9.60;;
20179;SDS011;10249;48.900;9.090;2023-06-24T00:38:46;9.70;;;9.40;;
20179;SDS011;10249;48.900;9.090;2023-06-24T00:41:15;10.07;;;9.77;;
20179;SDS011;10249;48.900;9.090;2023-06-24T00:43:43;9.90;;;9.60;;
20179;SDS011;10249;48.900;9.090;2023-06-24T00:46:10;10.17;;;9.87;;
20179;SDS011;10249;48.900;9.090;2023-06-24T00:48:38;10.20;;;9.90;;
20179;SDS011;10249;48.900;9.090;2023-06-24T00:51:05;10.20;;;9.90;;
20179;SDS011;10249;48.900;9.090;2023-06-24T00:53:33;10.40;;;10.07;;
20179;SDS011;10249;48.900;9.090;2023-06-24T00:56:01;10.93;;;10.53;;
20179;SDS011;10249;48.900;9.090;2023-06-24T00:58:28;10.70;;;10.30;;
20179;SDS011;10249;48.900;9.090;2023-06-24T01:00:55;10.47;;;10.13;;
20179;SDS011;10249;48.900;9.090;2023-06-24T01:03:24;10.63;;;10.23;;
20179;SDS011;10249;48.900;9.090;2023-06-24T01:05:52;10.70;;;10.30;;
20179;SDS011;10249;48.900;9.090;2023-06-24T01:08:19;10.57;;;10.17;;
20179;SDS011;10249;48.900;9.090;2023-06-24T01:10:47;10.30;;;10.00;;
20179;SDS011;10249;48.900;9.090;2023-06-24T01:13:17;10.30;;;10.00;;
20179;SDS011;10249;48.900;9.090;2023-06-24T01:15:44;10.17;;;9.87;;
20179;SDS011;10249;48.900;9.090;2023-06-24T01:18:13;10.30;;;10.00;;
20179;SDS011;10249;48.900;9.090;2023-06-24T01:20:47;10.10;;;9.80;;
20179;SDS011;10249;48.900;9.090;2023-06-24T01:23:24;10.00;;;9.70;;
20179;SDS011;10249;48.900;9.090;2023-06-24T01:25:59;9.80;;;9.50;;
20179;SDS011;10249;48.900;9.090;2023-06-24T01:28:33;9.70;;;9.40;;
20179;SDS011;10249;48.900;9.090;2023-06-24T01:31:21;10.00;;;9.70;;
20179;SDS011;10249;48.900;9.090;2023-06-24T01:33:50;10.00;;;9.70;;
20179;SDS011;10249;48.900;9.090;2023-06-24T01:36:18;9.90;;;9.60;;
20179;SDS011;10249;48.900;9.090;2023-06-24T01:38:46;10.10;;;9.80;;
20179;SDS011;10249;48.900;9.090;2023-06-24T01:41:16;9.93;;;9.63;;
20179;SDS011;10249;48.900;9.090;2023-06-24T01:43:45;9.70;;;9.40;;
20179;SDS011;10249;48.900;9.090;2023-06-24T01:46:14;9.50;;;9.20;;
20179;SDS011;10249;48.900;9.090;2023-06-24T01:48:43;9.00;;;8.70;;
20179;SDS011;10249;48.900;9.090;2023-06-24T01:51:12;8.70;;;8.40;;
20179;SDS011;10249;48.900;9.090;2023-06-24T01:53:42;8.47;;;8.17;;
20179;SDS011;10249;48.900;9.090;2023-06-24T01:56:12;8.77;;;8.47;;
20179;SDS011;10249;48.900;9.090;2023-06-24T01:58:41;8.67;;;8.37;;
20179;SDS011;10249;48.900;9.090;2023-06-24T02:01:09;8.70;;;8.40;;
20179;SDS011;10249;48.900;9.090;2023-06-24T02:03:36;8.50;;;8.20;;
20179;SDS011;10249;48.900;9.090;2023-06-24T02:06:05;8.00;;;7.80;;
20179;SDS011;10249;48.900;9.090;2023-06-24T02:08:34;8.43;;;8.13;;
20179;SDS011;10249;48.900;9.090;2023-06-24T02:11:01;8.60;;;8.30;;
20179;SDS011;10249;48.900;9.090;2023-06-24T02:13:29;8.80;;;8.50;;
20179;SDS011;10249;48.900;9.090;2023-06-24T02:16:00;8.20;;;7.93;;
20179;SDS011;10249;48.900;9.090;2023-06-24T02:18:28;7.37;;;7.17;;
20179;SDS011;10249;48.900;9.090;2023-06-24T02:20:56;6.87;;;6.67;;
20179;SDS011;10249;48.900;9.090;2023-06-24T02:23:25;6.90;;;6.70;;
20179;SDS011;10249;48.900;9.090;2023-06-24T02:25:53;6.77;;;6.57;;
20179;SDS011;10249;48.900;9.090;2023-06-24T02:28:20;6.70;;;6.50;;
20179;SDS011;10249;48.900;9.090;2023-06-24T02:30:47;6.60;;;6.40;;
20179;SDS011;10249;48.900;9.090;2023-06-24T02:33:14;6.20;;;6.00;;
20179;SDS011;10249;48.900;9.090;2023-06-24T02:35:42;6.30;;;6.10;;
20179;SDS011;10249;48.900;9.090;2023-06-24T02:38:11;6.03;;;5.83;;
20179;SDS011;10249;48.900;9.090;2023-06-24T02:40:39;6.07;;;5.87;;
20179;SDS011;10249;48.900;9.090;2023-06-24T02:43:06;6.63;;;6.43;;
20179;SDS011;10249;48.900;9.090;2023-06-24T02:45:34;6.67;;;6.47;;
20179;SDS011;10249;48.900;9.090;2023-06-24T02:48:01;6.97;;;6.77;;
20179;SDS011;10249;48.900;9.090;2023-06-24T02:50:29;7.30;;;7.10;;
20179;SDS011;10249;48.900;9.090;2023-06-24T02:52:56;7.90;;;7.70;;
20179;SDS011;10249;48.900;9.090;2023-06-24T02:55:24;8.30;;;8.00;;
20179;SDS011;10249;48.900;9.090;2023-06-24T02:57:52;7.80;;;7.60;;
20179;SDS011;10249;48.900;9.090;2023-06-24T03:00:20;8.13;;;7.90;;
20179;SDS011;10249;48.900;9.090;2023-06-24T03:02:47;7.90;;;7.70;;
20179;SDS011;10249;48.900;9.090;2023-06-24T03:05:14;8.00;;;7.80;;
20179;SDS011;10249;48.900;9.090;2023-06-24T03:07:43;7.83;;;7.63;;
20179;SDS011;10249;48.900;9.090;2023-06-24T03:10:11;8.00;;;7.80;;
20179;SDS011;10249;48.900;9.090;2023-06-24T03:12:40;7.90;;;7.70;;
20179;SDS011;10249;48.900;9.090;2023-06-24T03:15:08;8.00;;;7.80;;
20179;SDS011;10249;48.900;9.090;2023-06-24T03:17:36;7.63;;;7.43;;
20179;SDS011;10249;48.900;9.090;2023-06-24T03:20:03;7.60;;;7.40;;
20179;SDS011;10249;48.900;9.090;2023-06-24T03:22:31;7.37;;;7.17;;
20179;SDS011;10249;48.900;9.090;2023-06-24T03:24:59;7.73;;;7.53;;
20179;SDS011;10249;48.900;9.090;2023-06-24T03:27:26;7.80;;;7.60;;
20179;SDS011;10249;48.900;9.090;2023-06-24T03:29:53;7.90;;;7.70;;
20179;SDS011;10249;48.900;9.090;2023-06-24T03:32:21;8.30;;;8.00;;
20179;SDS011;10249;48.900;9.090;2023-06-24T03:34:48;8.23;;;7.93;;
20179;SDS011;10249;48.900;9.090;2023-06-24T03:37:15;8.13;;;7.90;;
20179;SDS011;10249;48.900;9.090;2023-06-24T03:39:42;8.30;;;8.00;;
20179;SDS011;10249;48.900;9.090;2023-06-24T03:42:09;7.70;;;7.50;;
20179;SDS011;10249;48.900;9.090;2023-06-24T03:44:36;7.60;;;7.40;;
20179;SDS011;10249;48.900;9.090;2023-06-24T03:47:04;7.77;;;7.57;;
20179;SDS011;10249;48.900;9.090;2023-06-24T03:49:33;7.80;;;7.60;;
20179;SDS011;10249;48.900;9.090;2023-06-24T03:52:00;8.00;;;7.80;;
20179;SDS011;10249;48.900;9.090;2023-06-24T03:54:28;8.07;;;7.83;;
20179;SDS011;10249;48.900;9.090;2023-06-24T03:56:55;8.47;;;8.17;;
20179;SDS011;10249;48.900;9.090;2023-06-24T03:59:22;8.70;;;8.40;;
20179;SDS011;10249;48.900;9.090;2023-06-24T04:01:50;8.57;;;8.27;;
20179;SDS011;10249;48.900;9.090;2023-06-24T04:04:17;8.50;;;8.20;;
20179;SDS011;10249;48.900;9.090;2023-06-24T04:06:45;8.30;;;8.00;;
20179;SDS011;10249;48.900;9.090;2023-06-24T04:09:12;7.70;;;7.50;;
20179;SDS011;10249;48.900;9.090;2023-06-24T04:11:39;7.90;;;7.70;;
20179;SDS011;10249;48.900;9.090;2023-06-24T04:14:06;8.10;;;7.90;;
20179;SDS011;10249;48.900;9.090;2023-06-24T04:16:34;8.30;;;8.00;;
20179;SDS011;10249;48.900;9.090;2023-06-24T04:19:01;8.13;;;7.90;;
20179;SDS011;10249;48.900;9.090;2023-06-24T04:21:28;8.60;;;8.30;;
20179;SDS011;10249;48.900;9.090;2023-06-24T04:23:57;8.53;;;8.23;;
20179;SDS011;10249;48.900;9.090;2023-06-24T04:26:24;8.80;;;8.50;;
20179;SDS011;10249;48.900;9.090;2023-06-24T04:28:51;8.83;;;8.53;;
20179;SDS011;10249;48.900;9.090;2023-06-24T04:31:18;9.03;;;8.73;;
20179;SDS011;10249;48.900;9.090;2023-06-24T04:33:45;9.30;;;9.00;;
20179;SDS011;10249;48.900;9.090;2023-06-24T04:36:12;9.30;;;9.00;;
20179;SDS011;10249;48.900;9.090;2023-06-24T04:38:40;9.43;;;9.13;;
20179;SDS011;10249;48.900;9.090;2023-06-24T04:41:08;9.40;;;9.10;;
20179;SDS011;10249;48.900;9.090;2023-06-24T04:43:35;9.40;;;9.10;;
20179;SDS011;10249;48.900;9.090;2023-06-24T04:46:02;9.00;;;8.70;;
20179;SDS011;10249;48.900;9.090;2023-06-24T04:48:29;8.60;;;8.30;;
20179;SDS011;10249;48.900;9.090;2023-06-24T04:50:56;8.63;;;8.33;;
20179;SDS011;10249;48.900;9.090;2023-06-24T04:53:23;8.77;;;8.47;;
20179;SDS011;10249;48.900;9.090;2023-06-24T04:55:51;9.00;;;8.70;;
20179;SDS011;10249;48.900;9.090;2023-06-24T04:58:19;8.90;;;8.60;;
20179;SDS011;10249;48.900;9.090;2023-06-24T05:00:46;9.00;;;8.70;;
20179;SDS011;10249;48.900;9.090;2023-06-24T05:03:13;9.20;;;8.90;;
20179;SDS011;10249;48.900;9.090;2023-06-24T05:05:40;9.50;;;9.20;;
20179;SDS011;10249;48.900;9.090;2023-06-24T05:08:07;9.60;;;9.30;;
20179;SDS011;10249;48.900;9.090;2023-06-24T05:10:34;9.50;;;9.20;;
20179;SDS011;10249;48.900;9.090;2023-06-24T05:13:01;9.50;;;9.20;;
20179;SDS011;10249;48.900;9.090;2023-06-24T05:15:30;9.70;;;9.40;;
20179;SDS011;10249;48.900;9.090;2023-06-24T05:17:57;10.03;;;9.73;;
20179;SDS011;10249;48.900;9.090;2023-06-24T05:20:24;10.43;;;10.10;;
20179;SDS011;10249;48.900;9.090;2023-06-24T05:22:51;10.10;;;9.80;;
20179;SDS011;10249;48.900;9.090;2023-06-24T05:25:19;10.00;;;9.70;;
20179;SDS011;10249;48.900;9.090;2023-06-24T05:27:46;10.37;;;10.03;;
20179;SDS011;10249;48.900;9.090;2023-06-24T05:30:13;9.90;;;9.60;;
20179;SDS011;10249;48.900;9.090;2023-06-24T05:32:42;10.40;;;10.10;;
20179;SDS011;10249;48.900;9.090;2023-06-24T05:35:09;10.87;;;10.47;;
20179;SDS011;10249;48.900;9.090;2023-06-24T05:37:36;10.70;;;10.30;;
20179;SDS011;10249;48.900;9.090;2023-06-24T05:40:03;10.70;;;10.30;;
20179;SDS011;10249;48.900;9.090;2023-06-24T05:42:31;10.17;;;9.87;;
20179;SDS011;10249;48.900;9.090;2023-06-24T05:44:58;10.50;;;10.10;;
20179;SDS011;10249;48.900;9.090;2023-06-24T05:47:26;10.37;;;10.00;;
20179;SDS011;10249;48.900;9.090;2023-06-24T05:49:54;11.00;;;10.60;;
20179;SDS011;10249;48.900;9.090;2023-06-24T05:52:21;10.83;;;10.43;;
20179;SDS011;10249;48.900;9.090;2023-06-24T05:54:48;11.00;;;10.60;;
20179;SDS011;10249;48.900;9.090;2023-06-24T05:57:15;11.20;;;10.80;;
20179;SDS011;10249;48.900;9.090;2023-06-24T05:59:42;11.27;;;10.87;;
20179;SDS011;10249;48.900;9.090;2023-06-24T06:02:09;12.10;;;11.60;;
20179;SDS011;10249;48.900;9.090;2023-06-24T06:04:37;11.10;;;10.70;;
20179;SDS011;10249;48.900;9.090;2023-06-24T06:07:06;11.13;;;10.73;;
20179;SDS011;10249;48.900;9.090;2023-06-24T06:09:33;11.43;;;11.03;;
20179;SDS011;10249;48.900;9.090;2023-06-24T06:12:00;11.40;;;11.00;;
20179;SDS011;10249;48.900;9.090;2023-06-24T06:14:28;11.70;;;11.30;;
20179;SDS011;10249;48.900;9.090;2023-06-24T06:16:55;12.33;;;11.83;;
20179;SDS011;10249;48.900;9.090;2023-06-24T06:19:22;13.10;;;12.60;;
20179;SDS011;10249;48.900;9.090;2023-06-24T06:21:49;12.90;;;12.40;;
20179;SDS011;10249;48.900;9.090;2023-06-24T06:24:18;12.70;;;12.20;;
20179;SDS011;10249;48.900;9.090;2023-06-24T06:26:45;12.80;;;12.30;;
20179;SDS011;10249;48.900;9.090;2023-06-24T06:29:12;13.00;;;12.50;;
20179;SDS011;10249;48.900;9.090;2023-06-24T06:31:39;12.90;;;12.40;;
20179;SDS011;10249;48.900;9.090;2023-06-24T06:34:07;12.83;;;12.33;;
20179;SDS011;10249;48.900;9.090;2023-06-24T06:36:34;12.80;;;12.30;;
20179;SDS011;10249;48.900;9.090;2023-06-24T06:39:01;12.50;;;12.00;;
20179;SDS011;10249;48.900;9.090;2023-06-24T06:41:29;13.10;;;12.60;;
20179;SDS011;10249;48.900;9.090;2023-06-24T06:43:56;12.43;;;11.97;;
20179;SDS011;10249;48.900;9.090;2023-06-24T06:46:23;12.67;;;12.17;;
20179;SDS011;10249;48.900;9.090;2023-06-24T06:48:51;12.80;;;12.30;;
20179;SDS011;10249;48.900;9.090;2023-06-24T06:51:18;12.90;;;12.40;;
20179;SDS011;10249;48.900;9.090;2023-06-24T06:53:45;12.97;;;12.47;;
20179;SDS011;10249;48.900;9.090;2023-06-24T06:56:16;12.80;;;12.30;;
20179;SDS011;10249;48.900;9.090;2023-06-24T06:58:45;14.13;;;13.63;;
20179;SDS011;10249;48.900;9.090;2023-06-24T07:01:12;13.50;;;12.90;;
20179;SDS011;10249;48.900;9.090;2023-06-24T07:03:39;13.20;;;12.70;;
20179;SDS011;10249;48.900;9.090;2023-06-24T07:06:06;13.30;;;12.80;;
20179;SDS011;10249;48.900;9.090;2023-06-24T07:08:33;13.50;;;13.00;;
20179;SDS011;10249;48.900;9.090;2023-06-24T07:11:01;13.13;;;12.63;;
20179;SDS011;10249;48.900;9.090;2023-06-24T07:13:28;13.20;;;12.70;;
20179;SDS011;10249;48.900;9.090;2023-06-24T07:15:56;13.60;;;13.10;;
20179;SDS011;10249;48.900;9.090;2023-06-24T07:18:23;13.30;;;12.80;;
20179;SDS011;10249;48.900;9.090;2023-06-24T07:20:55;13.73;;;13.23;;
20179;SDS011;10249;48.900;9.090;2023-06-24T07:23:22;13.50;;;13.00;;
20179;SDS011;10249;48.900;9.090;2023-06-24T07:25:49;13.80;;;13.30;;
20179;SDS011;10249;48.900;9.090;2023-06-24T07:28:16;14.10;;;13.50;;
20179;SDS011;10249;48.900;9.090;2023-06-24T07:30:43;14.37;;;13.77;;
20179;SDS011;10249;48.900;9.090;2023-06-24T07:33:12;14.43;;;13.83;;
20179;SDS011;10249;48.900;9.090;2023-06-24T07:35:39;14.33;;;13.73;;
20179;SDS011;10249;48.900;9.090;2023-06-24T07:38:06;28.30;;;27.27;;
20179;SDS011;10249;48.900;9.090;2023-06-24T07:40:33;14.60;;;14.00;;
20179;SDS011;10249;48.900;9.090;2023-06-24T07:43:00;14.10;;;13.50;;
20179;SDS011;10249;48.900;9.090;2023-06-24T07:45:27;14.07;;;13.47;;
20179;SDS011;10249;48.900;9.090;2023-06-24T07:47:54;14.17;;;13.57;;
20179;SDS011;10249;48.900;9.090;2023-06-24T07:50:23;13.93;;;13.37;;
20179;SDS011;10249;48.900;9.090;2023-06-24T07:52:50;14.60;;;14.00;;
20179;SDS011;10249;48.900;9.090;2023-06-24T07:55:17;14.80;;;14.20;;
20179;SDS011;10249;48.900;9.090;2023-06-24T07:57:44;14.40;;;13.80;;
20179;SDS011;10249;48.900;9.090;2023-06-24T08:00:12;14.20;;;13.60;;
20179;SDS011;10249;48.900;9.090;2023-06-24T08:02:40;14.23;;;13.63;;
20179;SDS011;10249;48.900;9.090;2023-06-24T08:05:07;14.50;;;13.90;;
20179;SDS011;10249;48.900;9.090;2023-06-24T08:07:36;14.40;;;13.80;;
20179;SDS011;10249;48.900;9.090;2023-06-24T08:10:04;14.50;;;13.90;;
20179;SDS011;10249;48.900;9.090;2023-06-24T08:12:31;15.00;;;14.40;;
20179;SDS011;10249;48.900;9.090;2023-06-24T08:14:59;14.50;;;13.90;;
20179;SDS011;10249;48.900;9.090;2023-06-24T08:17:26;14.17;;;13.57;;
20179;SDS011;10249;48.900;9.090;2023-06-24T08:19:53;14.40;;;13.80;;
20179;SDS011;10249;48.900;9.090;2023-06-24T08:22:20;14.10;;;13.50;;
20179;SDS011;10249;48.900;9.090;2023-06-24T08:24:48;14.30;;;13.70;;
20179;SDS011;10249;48.900;9.090;2023-06-24T08:27:15;14.50;;;13.90;;
20179;SDS011;10249;48.900;9.090;2023-06-24T08:29:42;14.37;;;13.77;;
20179;SDS011;10249;48.900;9.090;2023-06-24T08:32:10;14.50;;;13.90;;
20179;SDS011;10249;48.900;9.090;2023-06-24T08:34:37;14.50;;;13.90;;
20179;SDS011;10249;48.900;9.090;2023-06-24T08:37:04;14.47;;;13.87;;
20179;SDS011;10249;48.900;9.090;2023-06-24T08:39:31;14.70;;;14.10;;
20179;SDS011;10249;48.900;9.090;2023-06-24T08:41:59;14.60;;;14.00;;
20179;SDS011;10249;48.900;9.090;2023-06-24T08:44:27;14.93;;;14.33;;
20179;SDS011;10249;48.900;9.090;2023-06-24T08:46:54;14.87;;;14.17;;
20179;SDS011;10249;48.900;9.090;2023-06-24T08:49:25;14.40;;;13.80;;
20179;SDS011;10249;48.900;9.090;2023-06-24T08:51:54;14.30;;;13.70;;
20179;SDS011;10249;48.900;9.090;2023-06-24T08:54:22;14.70;;;14.10;;
20179;SDS011;10249;48.900;9.090;2023-06-24T08:56:50;14.70;;;14.10;;
20179;SDS011;10249;48.900;9.090;2023-06-24T08:59:19;14.70;;;14.10;;
20179;SDS011;10249;48.900;9.090;2023-06-24T09:01:46;14.70;;;14.10;;
20179;SDS011;10249;48.900;9.090;2023-06-24T09:04:14;14.67;;;14.07;;
20179;SDS011;10249;48.900;9.090;2023-06-24T09:06:41;14.70;;;14.10;;
20179;SDS011;10249;48.900;9.090;2023-06-24T09:09:17;14.23;;;13.63;;
20179;SDS011;10249;48.900;9.090;2023-06-24T09:11:50;14.35;;;13.75;;
20179;SDS011;10249;48.900;9.090;2023-06-24T09:14:20;14.32;;;13.73;;
20179;SDS011;10249;48.900;9.090;2023-06-24T09:16:53;14.80;;;14.20;;
20179;SDS011;10249;48.900;9.090;2023-06-24T09:19:21;14.50;;;13.90;;
20179;SDS011;10249;48.900;9.090;2023-06-24T09:21:48;14.43;;;13.82;;
20179;SDS011;10249;48.900;9.090;2023-06-24T09:24:16;14.55;;;13.95;;
20179;SDS011;10249;48.900;9.090;2023-06-24T09:26:43;14.63;;;14.02;;
20179;SDS011;10249;48.900;9.090;2023-06-24T09:29:11;14.63;;;14.02;;
20179;SDS011;10249;48.900;9.090;2023-06-24T09:31:46;14.70;;;14.10;;
20179;SDS011;10249;48.900;9.090;2023-06-24T09:34:14;14.65;;;14.05;;
20179;SDS011;10249;48.900;9.090;2023-06-24T09:36:42;14.82;;;14.23;;
20179;SDS011;10249;48.900;9.090;2023-06-24T09:39:09;14.70;;;14.10;;
20179;SDS011;10249;48.900;9.090;2023-06-24T09:41:39;14.35;;;13.75;;
20179;SDS011;10249;48.900;9.090;2023-06-24T09:44:07;14.40;;;13.80;;
20179;SDS011;10249;48.900;9.090;2023-06-24T09:46:35;14.65;;;14.05;;
20179;SDS011;10249;48.900;9.090;2023-06-24T09:49:04;14.75;;;14.15;;
20179;SDS011;10249;48.900;9.090;2023-06-24T09:51:32;14.65;;;14.05;;
20179;SDS011;10249;48.900;9.090;2023-06-24T09:54:00;14.65;;;14.05;;
20179;SDS011;10249;48.900;9.090;2023-06-24T09:56:28;15.68;;;14.98;;
20179;SDS011;10249;48.900;9.090;2023-06-24T09:58:55;15.57;;;14.88;;
20179;SDS011;10249;48.900;9.090;2023-06-24T10:01:23;16.20;;;15.50;;
20179;SDS011;10249;48.900;9.090;2023-06-24T10:03:50;15.57;;;14.88;;
20179;SDS011;10249;48.900;9.090;2023-06-24T10:06:18;16.05;;;15.35;;
20179;SDS011;10249;48.900;9.090;2023-06-24T10:08:46;15.65;;;14.95;;
20179;SDS011;10249;48.900;9.090;2023-06-24T10:11:13;15.82;;;15.13;;
20179;SDS011;10249;48.900;9.090;2023-06-24T10:13:40;15.57;;;14.88;;
20179;SDS011;10249;48.900;9.090;2023-06-24T10:16:07;15.10;;;14.40;;
20179;SDS011;10249;48.900;9.090;2023-06-24T10:18:35;15.80;;;15.10;;
20179;SDS011;10249;48.900;9.090;2023-06-24T10:21:03;15.55;;;14.85;;
20179;SDS011;10249;48.900;9.090;2023-06-24T10:23:33;15.50;;;14.80;;
20179;SDS011;10249;48.900;9.090;2023-06-24T10:26:00;15.60;;;14.90;;
20179;SDS011;10249;48.900;9.090;2023-06-24T10:28:30;15.40;;;14.70;;
20179;SDS011;10249;48.900;9.090;2023-06-24T10:31:17;15.57;;;14.88;;
20179;SDS011;10249;48.900;9.090;2023-06-24T10:33:48;15.35;;;14.65;;
20179;SDS011;10249;48.900;9.090;2023-06-24T10:36:31;15.35;;;14.65;;
20179;SDS011;10249;48.900;9.090;2023-06-24T10:39:00;15.25;;;14.55;;
20179;SDS011;10249;48.900;9.090;2023-06-24T10:41:27;15.60;;;14.90;;
20179;SDS011;10249;48.900;9.090;2023-06-24T10:43:55;15.80;;;15.10;;
20179;SDS011;10249;48.900;9.090;2023-06-24T10:46:24;15.85;;;15.15;;
20179;SDS011;10249;48.900;9.090;2023-06-24T10:48:53;15.63;;;14.93;;
20179;SDS011;10249;48.900;9.090;2023-06-24T10:51:20;15.75;;;15.05;;
20179;SDS011;10249;48.900;9.090;2023-06-24T10:53:47;15.68;;;14.98;;
20179;SDS011;10249;48.900;9.090;2023-06-24T10:56:15;15.40;;;14.70;;
20179;SDS011;10249;48.900;9.090;2023-06-24T10:58:54;16.23;;;15.52;;
20179;SDS011;10249;48.900;9.090;2023-06-24T11:01:21;16.30;;;15.60;;
20179;SDS011;10249;48.900;9.090;2023-06-24T11:03:48;16.10;;;15.40;;
20179;SDS011;10249;48.900;9.090;2023-06-24T11:06:15;15.90;;;15.20;;
20179;SDS011;10249;48.900;9.090;2023-06-24T11:08:43;15.77;;;15.07;;
20179;SDS011;10249;48.900;9.090;2023-06-24T11:11:10;16.67;;;15.98;;
20179;SDS011;10249;48.900;9.090;2023-06-24T11:13:46;15.43;;;14.75;;
20179;SDS011;10249;48.900;9.090;2023-06-24T11:16:14;15.90;;;15.20;;
20179;SDS011;10249;48.900;9.090;2023-06-24T11:18:46;16.77;;;16.05;;
20179;SDS011;10249;48.900;9.090;2023-06-24T11:21:14;15.82;;;15.23;;
20179;SDS011;10249;48.900;9.090;2023-06-24T11:23:41;15.98;;;15.32;;
20179;SDS011;10249;48.900;9.090;2023-06-24T11:26:08;16.15;;;15.48;;
20179;SDS011;10249;48.900;9.090;2023-06-24T11:28:37;15.23;;;14.52;;
20179;SDS011;10249;48.900;9.090;2023-06-24T11:31:07;15.40;;;14.70;;
20179;SDS011;10249;48.900;9.090;2023-06-24T11:33:35;15.40;;;14.70;;
20179;SDS011;10249;48.900;9.090;2023-06-24T11:36:08;15.15;;;14.55;;
20179;SDS011;10249;48.900;9.090;2023-06-24T11:38:35;15.18;;;14.57;;
20179;SDS011;10249;48.900;9.090;2023-06-24T11:41:03;14.82;;;14.23;;
20179;SDS011;10249;48.900;9.090;2023-06-24T11:43:30;14.80;;;14.20;;
20179;SDS011;10249;48.900;9.090;2023-06-24T11:45:57;15.00;;;14.40;;
20179;SDS011;10249;48.900;9.090;2023-06-24T11:48:27;15.40;;;14.70;;
20179;SDS011;10249;48.900;9.090;2023-06-24T11:50:54;15.13;;;14.52;;
20179;SDS011;10249;48.900;9.090;2023-06-24T11:53:22;15.50;;;14.80;;
20179;SDS011;10249;48.900;9.090;2023-06-24T11:55:55;14.98;;;14.38;;
20179;SDS011;10249;48.900;9.090;2023-06-24T11:58:22;15.25;;;14.55;;
20179;SDS011;10249;48.900;9.090;2023-06-24T12:00:49;15.38;;;14.68;;
20179;SDS011;10249;48.900;9.090;2023-06-24T12:03:22;15.20;;;14.50;;
20179;SDS011;10249;48.900;9.090;2023-06-24T12:05:51;14.80;;;14.20;;
20179;SDS011;10249;48.900;9.090;2023-06-24T12:08:18;15.43;;;14.73;;
20179;SDS011;10249;48.900;9.090;2023-06-24T12:10:47;14.73;;;14.13;;
20179;SDS011;10249;48.900;9.090;2023-06-24T12:13:15;14.85;;;14.25;;
20179;SDS011;10249;48.900;9.090;2023-06-24T12:15:42;15.00;;;14.40;;
20179;SDS011;10249;48.900;9.090;2023-06-24T12:18:09;15.13;;;14.48;;
20179;SDS011;10249;48.900;9.090;2023-06-24T12:20:36;15.10;;;14.43;;
20179;SDS011;10249;48.900;9.090;2023-06-24T12:23:05;15.15;;;14.55;;
20179;SDS011;10249;48.900;9.090;2023-06-24T12:25:32;15.75;;;15.05;;
20179;SDS011;10249;48.900;9.090;2023-06-24T12:27:59;15.50;;;14.80;;
20179;SDS011;10249;48.900;9.090;2023-06-24T12:30:26;15.60;;;14.90;;
20179;SDS011;10249;48.900;9.090;2023-06-24T12:32:53;15.27;;;14.68;;
20179;SDS011;10249;48.900;9.090;2023-06-24T12:35:21;15.10;;;14.50;;
20179;SDS011;10249;48.900;9.090;2023-06-24T12:37:50;15.15;;;14.45;;
20179;SDS011;10249;48.900;9.090;2023-06-24T12:40:19;15.45;;;14.75;;
20179;SDS011;10249;48.900;9.090;2023-06-24T12:42:46;15.27;;;14.57;;
20179;SDS011;10249;48.900;9.090;2023-06-24T12:45:13;15.07;;;14.40;;
20179;SDS011;10249;48.900;9.090;2023-06-24T12:47:40;15.32;;;14.63;;
20179;SDS011;10249;48.900;9.090;2023-06-24T12:50:07;15.65;;;14.95;;
20179;SDS011;10249;48.900;9.090;2023-06-24T12:52:35;15.13;;;14.43;;
20179;SDS011;10249;48.900;9.090;2023-06-24T12:55:02;15.18;;;14.48;;
20179;SDS011;10249;48.900;9.090;2023-06-24T12:57:30;15.10;;;14.40;;
20179;SDS011;10249;48.900;9.090;2023-06-24T12:59:57;15.40;;;14.70;;
20179;SDS011;10249;48.900;9.090;2023-06-24T13:02:25;15.23;;;14.52;;
20179;SDS011;10249;48.900;9.090;2023-06-24T13:04:52;14.70;;;14.10;;
20179;SDS011;10249;48.900;9.090;2023-06-24T13:07:19;14.55;;;13.95;;
20179;SDS011;10249;48.900;9.090;2023-06-24T13:09:46;14.45;;;13.85;;
20179;SDS011;10249;48.900;9.090;2023-06-24T13:12:13;14.43;;;13.82;;
20179;SDS011;10249;48.900;9.090;2023-06-24T13:14:41;14.43;;;13.82;;
20179;SDS011;10249;48.900;9.090;2023-06-24T13:17:08;14.60;;;14.00;;
20179;SDS011;10249;48.900;9.090;2023-06-24T13:19:35;14.50;;;13.90;;
20179;SDS011;10249;48.900;9.090;2023-06-24T13:22:03;14.35;;;13.75;;
20179;SDS011;10249;48.900;9.090;2023-06-24T13:24:30;14.45;;;13.85;;
20179;SDS011;10249;48.900;9.090;2023-06-24T13:26:57;14.43;;;13.82;;
20179;SDS011;10249;48.900;9.090;2023-06-24T13:29:24;14.43;;;13.82;;
20179;SDS011;10249;48.900;9.090;2023-06-24T13:31:53;14.73;;;14.13;;
20179;SDS011;10249;48.900;9.090;2023-06-24T13:34:20;14.80;;;14.20;;
20179;SDS011;10249;48.900;9.090;2023-06-24T13:36:48;14.82;;;14.23;;
20179;SDS011;10249;48.900;9.090;2023-06-24T13:39:15;14.75;;;14.15;;
20179;SDS011;10249;48.900;9.090;2023-06-24T13:41:43;14.48;;;13.88;;
20179;SDS011;10249;48.900;9.090;2023-06-24T13:44:10;14.35;;;13.75;;
20179;SDS011;10249;48.900;9.090;2023-06-24T13:46:38;14.48;;;13.88;;
20179;SDS011;10249;48.900;9.090;2023-06-24T13:49:06;14.32;;;13.73;;
20179;SDS011;10249;48.900;9.090;2023-06-24T13:51:33;14.50;;;13.90;;
20179;SDS011;10249;48.900;9.090;2023-06-24T13:54:01;14.63;;;14.02;;
20179;SDS011;10249;48.900;9.090;2023-06-24T13:56:28;14.90;;;14.20;;
20179;SDS011;10249;48.900;9.090;2023-06-24T13:58:55;15.13;;;14.43;;
20179;SDS011;10249;48.900;9.090;2023-06-24T14:01:22;15.27;;;14.68;;
20179;SDS011;10249;48.900;9.090;2023-06-24T14:03:50;15.10;;;14.40;;
20179;SDS011;10249;48.900;9.090;2023-06-24T14:06:19;15.30;;;14.60;;
20179;SDS011;10249;48.900;9.090;2023-06-24T14:08:47;15.13;;;14.43;;
20179;SDS011;10249;48.900;9.090;2023-06-24T14:11:14;14.77;;;14.18;;
20179;SDS011;10249;48.900;9.090;2023-06-24T14:13:41;15.80;;;15.00;;
20179;SDS011;10249;48.900;9.090;2023-06-24T14:16:08;15.70;;;15.00;;
20179;SDS011;10249;48.900;9.090;2023-06-24T14:18:36;14.93;;;14.32;;
20179;SDS011;10249;48.900;9.090;2023-06-24T14:21:04;15.05;;;14.45;;
20179;SDS011;10249;48.900;9.090;2023-06-24T14:23:33;14.90;;;14.30;;
20179;SDS011;10249;48.900;9.090;2023-06-24T14:26:00;14.82;;;14.23;;
20179;SDS011;10249;48.900;9.090;2023-06-24T14:28:28;14.65;;;14.05;;
20179;SDS011;10249;48.900;9.090;2023-06-24T14:30:55;14.60;;;14.00;;
20179;SDS011;10249;48.900;9.090;2023-06-24T14:33:22;14.65;;;14.05;;
20179;SDS011;10249;48.900;9.090;2023-06-24T14:35:49;14.35;;;13.75;;